sensor_id;sensor_type;location;lat;lon;timestamp;P1;durP1;ratioP1;P2;durP2;ratioP2
14094;SDS011;18096;48.142;16.290;2022-11-24T00:01:34;6.38;;;4.78;;
14094;SDS011;18096;48.142;16.290;2022-11-24T00:04:01;10.32;;;5.38;;
14094;SDS011;18096;48.142;16.290;2022-11-24T00:06:29;6.65;;;5.50;;
14094;SDS011;18096;48.142;16.290;2022-11-24T00:08:56;8.65;;;5.13;;
14094;SDS011;18096;48.142;16.290;2022-11-24T00:11:24;5.93;;;4.97;;
14094;SDS011;18096;48.142;16.290;2022-11-24T00:13:51;5.72;;;4.68;;
14094;SDS011;18096;48.142;16.290;2022-11-24T00:16:19;7.57;;;4.90;;
14094;SDS011;18096;48.142;16.290;2022-11-24T00:18:46;8.32;;;5.65;;
14094;SDS011;18096;48.142;16.290;2022-11-24T00:21:14;9.50;;;6.32;;
14094;SDS011;18096;48.142;16.290;2022-11-24T00:23:41;7.20;;;5.60;;
14094;SDS011;18096;48.142;16.290;2022-11-24T00:26:08;8.52;;;5.70;;
14094;SDS011;18096;48.142;16.290;2022-11-24T00:28:34;8.75;;;5.88;;
14094;SDS011;18096;48.142;16.290;2022-11-24T00:31:01;6.55;;;5.80;;
14094;SDS011;18096;48.142;16.290;2022-11-24T00:33:27;8.15;;;5.70;;
14094;SDS011;18096;48.142;16.290;2022-11-24T00:35:59;8.40;;;5.95;;
14094;SDS011;18096;48.142;16.290;2022-11-24T00:38:25;8.10;;;5.50;;
14094;SDS011;18096;48.142;16.290;2022-11-24T00:40:51;6.22;;;5.57;;
14094;SDS011;18096;48.142;16.290;2022-11-24T00:43:17;6.80;;;6.05;;
14094;SDS011;18096;48.142;16.290;2022-11-24T00:45:43;7.40;;;5.15;;
14094;SDS011;18096;48.142;16.290;2022-11-24T00:48:09;11.40;;;5.70;;
14094;SDS011;18096;48.142;16.290;2022-11-24T00:50:35;7.25;;;6.00;;
14094;SDS011;18096;48.142;16.290;2022-11-24T00:53:00;7.22;;;5.75;;
14094;SDS011;18096;48.142;16.290;2022-11-24T00:55:26;6.50;;;5.77;;
14094;SDS011;18096;48.142;16.290;2022-11-24T00:57:52;6.47;;;5.83;;
14094;SDS011;18096;48.142;16.290;2022-11-24T01:00:17;9.32;;;5.38;;
14094;SDS011;18096;48.142;16.290;2022-11-24T01:02:43;10.27;;;4.90;;
14094;SDS011;18096;48.142;16.290;2022-11-24T01:05:09;9.70;;;5.97;;
14094;SDS011;18096;48.142;16.290;2022-11-24T01:07:35;7.03;;;5.80;;
14094;SDS011;18096;48.142;16.290;2022-11-24T01:10:01;6.87;;;6.17;;
14094;SDS011;18096;48.142;16.290;2022-11-24T01:12:26;6.50;;;5.80;;
14094;SDS011;18096;48.142;16.290;2022-11-24T01:14:52;9.38;;;6.35;;
14094;SDS011;18096;48.142;16.290;2022-11-24T01:17:18;7.93;;;6.00;;
14094;SDS011;18096;48.142;16.290;2022-11-24T01:19:44;7.30;;;5.15;;
14094;SDS011;18096;48.142;16.290;2022-11-24T01:22:11;7.88;;;5.90;;
14094;SDS011;18096;48.142;16.290;2022-11-24T01:24:37;6.78;;;5.65;;
14094;SDS011;18096;48.142;16.290;2022-11-24T01:27:03;8.03;;;5.97;;
14094;SDS011;18096;48.142;16.290;2022-11-24T01:29:29;10.50;;;6.53;;
14094;SDS011;18096;48.142;16.290;2022-11-24T01:31:54;6.65;;;5.40;;
14094;SDS011;18096;48.142;16.290;2022-11-24T01:34:20;7.90;;;6.40;;
14094;SDS011;18096;48.142;16.290;2022-11-24T01:36:46;7.30;;;5.63;;
14094;SDS011;18096;48.142;16.290;2022-11-24T01:39:11;7.07;;;5.40;;
14094;SDS011;18096;48.142;16.290;2022-11-24T01:41:37;7.55;;;5.95;;
14094;SDS011;18096;48.142;16.290;2022-11-24T01:47:35;7.05;;;5.30;;
14094;SDS011;18096;48.142;16.290;2022-11-24T01:49:38;8.07;;;6.10;;
14094;SDS011;18096;48.142;16.290;2022-11-24T01:54:42;10.95;;;6.60;;
14094;SDS011;18096;48.142;16.290;2022-11-24T01:57:17;8.77;;;6.38;;
14094;SDS011;18096;48.142;16.290;2022-11-24T02:00:04;8.35;;;6.18;;
14094;SDS011;18096;48.142;16.290;2022-11-24T02:02:32;9.85;;;7.35;;
14094;SDS011;18096;48.142;16.290;2022-11-24T02:04:58;9.88;;;6.45;;
14094;SDS011;18096;48.142;16.290;2022-11-24T02:07:30;11.07;;;6.82;;
14094;SDS011;18096;48.142;16.290;2022-11-24T02:09:58;11.25;;;7.20;;
14094;SDS011;18096;48.142;16.290;2022-11-24T02:12:28;6.78;;;6.18;;
14094;SDS011;18096;48.142;16.290;2022-11-24T02:14:55;8.75;;;6.07;;
14094;SDS011;18096;48.142;16.290;2022-11-24T02:17:22;10.10;;;6.60;;
14094;SDS011;18096;48.142;16.290;2022-11-24T02:19:57;9.25;;;7.63;;
14094;SDS011;18096;48.142;16.290;2022-11-24T02:22:46;10.00;;;7.03;;
14094;SDS011;18096;48.142;16.290;2022-11-24T02:28:11;9.90;;;7.20;;
14094;SDS011;18096;48.142;16.290;2022-11-24T02:30:39;11.07;;;6.80;;
14094;SDS011;18096;48.142;16.290;2022-11-24T02:33:05;12.35;;;7.55;;
14094;SDS011;18096;48.142;16.290;2022-11-24T02:35:31;9.67;;;6.80;;
14094;SDS011;18096;48.142;16.290;2022-11-24T02:37:57;6.83;;;6.17;;
14094;SDS011;18096;48.142;16.290;2022-11-24T02:40:24;9.27;;;7.30;;
14094;SDS011;18096;48.142;16.290;2022-11-24T02:42:53;8.40;;;6.60;;
14094;SDS011;18096;48.142;16.290;2022-11-24T02:45:22;9.90;;;6.88;;
14094;SDS011;18096;48.142;16.290;2022-11-24T02:47:48;10.27;;;7.10;;
14094;SDS011;18096;48.142;16.290;2022-11-24T02:50:14;11.38;;;7.60;;
14094;SDS011;18096;48.142;16.290;2022-11-24T02:52:40;9.07;;;7.53;;
14094;SDS011;18096;48.142;16.290;2022-11-24T02:55:05;8.17;;;7.10;;
14094;SDS011;18096;48.142;16.290;2022-11-24T02:57:31;11.33;;;7.37;;
14094;SDS011;18096;48.142;16.290;2022-11-24T02:59:57;8.57;;;7.70;;
14094;SDS011;18096;48.142;16.290;2022-11-24T03:02:23;9.88;;;7.90;;
14094;SDS011;18096;48.142;16.290;2022-11-24T03:04:48;12.75;;;8.10;;
14094;SDS011;18096;48.142;16.290;2022-11-24T03:07:14;7.03;;;6.30;;
14094;SDS011;18096;48.142;16.290;2022-11-24T03:09:40;10.90;;;6.90;;
14094;SDS011;18096;48.142;16.290;2022-11-24T03:12:05;15.60;;;7.82;;
14094;SDS011;18096;48.142;16.290;2022-11-24T03:14:31;9.23;;;6.47;;
14094;SDS011;18096;48.142;16.290;2022-11-24T03:16:57;8.93;;;6.40;;
14094;SDS011;18096;48.142;16.290;2022-11-24T03:19:22;7.97;;;6.07;;
14094;SDS011;18096;48.142;16.290;2022-11-24T03:21:48;7.60;;;5.65;;
14094;SDS011;18096;48.142;16.290;2022-11-24T03:24:13;7.90;;;5.73;;
14094;SDS011;18096;48.142;16.290;2022-11-24T03:26:39;7.18;;;5.53;;
14094;SDS011;18096;48.142;16.290;2022-11-24T03:29:06;6.13;;;5.20;;
14094;SDS011;18096;48.142;16.290;2022-11-24T03:31:32;7.35;;;5.65;;
14094;SDS011;18096;48.142;16.290;2022-11-24T03:33:58;5.10;;;4.50;;
14094;SDS011;18096;48.142;16.290;2022-11-24T03:36:23;7.03;;;5.65;;
14094;SDS011;18096;48.142;16.290;2022-11-24T03:38:49;6.67;;;5.50;;
14094;SDS011;18096;48.142;16.290;2022-11-24T03:41:15;5.73;;;4.40;;
14094;SDS011;18096;48.142;16.290;2022-11-24T03:43:40;5.75;;;4.93;;
14094;SDS011;18096;48.142;16.290;2022-11-24T03:46:06;4.68;;;4.28;;
14094;SDS011;18096;48.142;16.290;2022-11-24T03:48:32;5.43;;;4.72;;
14094;SDS011;18096;48.142;16.290;2022-11-24T03:50:58;9.33;;;5.80;;
14094;SDS011;18096;48.142;16.290;2022-11-24T03:53:26;6.13;;;5.50;;
14094;SDS011;18096;48.142;16.290;2022-11-24T03:55:53;8.77;;;5.57;;
14094;SDS011;18096;48.142;16.290;2022-11-24T03:58:19;6.80;;;6.07;;
14094;SDS011;18096;48.142;16.290;2022-11-24T04:00:45;6.30;;;5.73;;
14094;SDS011;18096;48.142;16.290;2022-11-24T04:03:16;6.43;;;5.22;;
14094;SDS011;18096;48.142;16.290;2022-11-24T04:05:41;10.88;;;7.00;;
14094;SDS011;18096;48.142;16.290;2022-11-24T04:08:07;7.10;;;5.80;;
14094;SDS011;18096;48.142;16.290;2022-11-24T04:10:34;6.93;;;5.88;;
14094;SDS011;18096;48.142;16.290;2022-11-24T04:13:01;7.93;;;6.57;;
14094;SDS011;18096;48.142;16.290;2022-11-24T04:15:28;7.57;;;6.00;;
14094;SDS011;18096;48.142;16.290;2022-11-24T04:17:54;7.03;;;5.93;;
14094;SDS011;18096;48.142;16.290;2022-11-24T04:20:21;8.57;;;6.57;;
14094;SDS011;18096;48.142;16.290;2022-11-24T04:22:48;8.10;;;6.13;;
14094;SDS011;18096;48.142;16.290;2022-11-24T04:25:15;10.02;;;6.60;;
14094;SDS011;18096;48.142;16.290;2022-11-24T04:27:41;6.90;;;5.82;;
14094;SDS011;18096;48.142;16.290;2022-11-24T04:30:07;8.18;;;5.97;;
14094;SDS011;18096;48.142;16.290;2022-11-24T04:32:33;6.10;;;5.15;;
14094;SDS011;18096;48.142;16.290;2022-11-24T04:34:59;7.57;;;4.93;;
14094;SDS011;18096;48.142;16.290;2022-11-24T04:37:25;5.63;;;5.13;;
14094;SDS011;18096;48.142;16.290;2022-11-24T04:39:51;6.40;;;5.50;;
14094;SDS011;18096;48.142;16.290;2022-11-24T04:42:18;5.32;;;4.80;;
14094;SDS011;18096;48.142;16.290;2022-11-24T04:44:44;5.63;;;4.70;;
14094;SDS011;18096;48.142;16.290;2022-11-24T04:47:14;5.83;;;4.63;;
14094;SDS011;18096;48.142;16.290;2022-11-24T04:49:43;5.07;;;4.57;;
14094;SDS011;18096;48.142;16.290;2022-11-24T04:52:11;7.25;;;5.45;;
14094;SDS011;18096;48.142;16.290;2022-11-24T04:54:36;5.88;;;4.57;;
14094;SDS011;18096;48.142;16.290;2022-11-24T04:57:02;4.00;;;3.70;;
14094;SDS011;18096;48.142;16.290;2022-11-24T04:59:28;4.00;;;3.70;;
14094;SDS011;18096;48.142;16.290;2022-11-24T05:01:53;5.72;;;3.78;;
14094;SDS011;18096;48.142;16.290;2022-11-24T05:04:19;4.40;;;4.10;;
14094;SDS011;18096;48.142;16.290;2022-11-24T05:06:45;4.35;;;3.50;;
14094;SDS011;18096;48.142;16.290;2022-11-24T05:09:12;4.05;;;3.15;;
14094;SDS011;18096;48.142;16.290;2022-11-24T05:11:40;3.30;;;3.00;;
14094;SDS011;18096;48.142;16.290;2022-11-24T05:14:05;7.10;;;3.10;;
14094;SDS011;18096;48.142;16.290;2022-11-24T05:16:31;7.30;;;2.77;;
14094;SDS011;18096;48.142;16.290;2022-11-24T05:18:57;4.13;;;2.90;;
14094;SDS011;18096;48.142;16.290;2022-11-24T05:21:22;3.10;;;2.70;;
14094;SDS011;18096;48.142;16.290;2022-11-24T05:23:48;3.00;;;2.70;;
14094;SDS011;18096;48.142;16.290;2022-11-24T05:26:13;3.72;;;2.80;;
14094;SDS011;18096;48.142;16.290;2022-11-24T05:28:39;3.10;;;2.90;;
14094;SDS011;18096;48.142;16.290;2022-11-24T05:31:05;5.27;;;2.60;;
14094;SDS011;18096;48.142;16.290;2022-11-24T05:33:30;3.65;;;2.65;;
14094;SDS011;18096;48.142;16.290;2022-11-24T05:36:03;3.50;;;3.10;;
14094;SDS011;18096;48.142;16.290;2022-11-24T05:38:31;3.17;;;2.88;;
14094;SDS011;18096;48.142;16.290;2022-11-24T05:41:00;3.65;;;3.38;;
14094;SDS011;18096;48.142;16.290;2022-11-24T05:43:30;3.23;;;2.70;;
14094;SDS011;18096;48.142;16.290;2022-11-24T05:45:59;2.47;;;2.38;;
14094;SDS011;18096;48.142;16.290;2022-11-24T05:48:25;2.47;;;2.38;;
14094;SDS011;18096;48.142;16.290;2022-11-24T05:50:55;2.40;;;2.30;;
14094;SDS011;18096;48.142;16.290;2022-11-24T05:53:21;2.58;;;2.35;;
14094;SDS011;18096;48.142;16.290;2022-11-24T05:55:47;3.42;;;2.50;;
14094;SDS011;18096;48.142;16.290;2022-11-24T05:58:13;2.42;;;2.33;;
14094;SDS011;18096;48.142;16.290;2022-11-24T06:00:39;2.00;;;1.80;;
14094;SDS011;18096;48.142;16.290;2022-11-24T06:03:05;2.27;;;2.17;;
14094;SDS011;18096;48.142;16.290;2022-11-24T06:05:30;2.50;;;2.30;;
14094;SDS011;18096;48.142;16.290;2022-11-24T06:07:57;2.47;;;2.28;;
14094;SDS011;18096;48.142;16.290;2022-11-24T06:10:23;2.03;;;1.92;;
14094;SDS011;18096;48.142;16.290;2022-11-24T06:12:49;1.90;;;1.80;;
14094;SDS011;18096;48.142;16.290;2022-11-24T06:15:15;1.70;;;1.70;;
14094;SDS011;18096;48.142;16.290;2022-11-24T06:17:41;1.60;;;1.50;;
14094;SDS011;18096;48.142;16.290;2022-11-24T06:20:08;2.30;;;1.90;;
14094;SDS011;18096;48.142;16.290;2022-11-24T06:22:34;1.92;;;1.83;;
14094;SDS011;18096;48.142;16.290;2022-11-24T06:25:00;1.58;;;1.48;;
14094;SDS011;18096;48.142;16.290;2022-11-24T06:27:26;1.63;;;1.52;;
14094;SDS011;18096;48.142;16.290;2022-11-24T06:29:52;1.37;;;1.27;;
14094;SDS011;18096;48.142;16.290;2022-11-24T06:32:18;1.23;;;1.23;;
14094;SDS011;18096;48.142;16.290;2022-11-24T06:34:43;2.37;;;1.70;;
14094;SDS011;18096;48.142;16.290;2022-11-24T06:37:09;1.50;;;1.40;;
14094;SDS011;18096;48.142;16.290;2022-11-24T06:39:35;1.20;;;1.20;;
14094;SDS011;18096;48.142;16.290;2022-11-24T06:42:01;1.70;;;1.60;;
14094;SDS011;18096;48.142;16.290;2022-11-24T06:44:27;1.33;;;1.33;;
14094;SDS011;18096;48.142;16.290;2022-11-24T06:46:53;1.73;;;1.60;;
14094;SDS011;18096;48.142;16.290;2022-11-24T06:49:19;1.63;;;1.53;;
14094;SDS011;18096;48.142;16.290;2022-11-24T06:51:44;5.90;;;2.00;;
14094;SDS011;18096;48.142;16.290;2022-11-24T06:54:13;2.78;;;2.00;;
14094;SDS011;18096;48.142;16.290;2022-11-24T06:56:41;1.70;;;1.60;;
14094;SDS011;18096;48.142;16.290;2022-11-24T06:59:12;1.40;;;1.40;;
14094;SDS011;18096;48.142;16.290;2022-11-24T07:01:41;1.80;;;1.70;;
14094;SDS011;18096;48.142;16.290;2022-11-24T07:04:07;3.15;;;1.88;;
14094;SDS011;18096;48.142;16.290;2022-11-24T07:06:32;2.72;;;1.83;;
14094;SDS011;18096;48.142;16.290;2022-11-24T07:08:58;1.80;;;1.50;;
14094;SDS011;18096;48.142;16.290;2022-11-24T07:11:24;1.63;;;1.52;;
14094;SDS011;18096;48.142;16.290;2022-11-24T07:13:50;1.70;;;1.60;;
14094;SDS011;18096;48.142;16.290;2022-11-24T07:16:20;5.63;;;1.50;;
14094;SDS011;18096;48.142;16.290;2022-11-24T07:18:48;1.70;;;1.60;;
14094;SDS011;18096;48.142;16.290;2022-11-24T07:21:18;2.10;;;2.00;;
14094;SDS011;18096;48.142;16.290;2022-11-24T07:23:48;1.50;;;1.40;;
14094;SDS011;18096;48.142;16.290;2022-11-24T07:26:15;2.00;;;1.90;;
14094;SDS011;18096;48.142;16.290;2022-11-24T07:28:41;2.87;;;2.00;;
14094;SDS011;18096;48.142;16.290;2022-11-24T07:31:07;2.00;;;1.70;;
14094;SDS011;18096;48.142;16.290;2022-11-24T07:33:34;2.03;;;1.70;;
14094;SDS011;18096;48.142;16.290;2022-11-24T07:36:00;2.40;;;2.20;;
14094;SDS011;18096;48.142;16.290;2022-11-24T07:38:27;2.10;;;1.90;;
14094;SDS011;18096;48.142;16.290;2022-11-24T07:40:58;1.92;;;1.70;;
14094;SDS011;18096;48.142;16.290;2022-11-24T07:43:29;1.77;;;1.67;;
14094;SDS011;18096;48.142;16.290;2022-11-24T07:45:56;1.50;;;1.50;;
14094;SDS011;18096;48.142;16.290;2022-11-24T07:48:21;1.60;;;1.50;;
14094;SDS011;18096;48.142;16.290;2022-11-24T07:50:47;1.80;;;1.70;;
14094;SDS011;18096;48.142;16.290;2022-11-24T07:53:13;1.40;;;1.30;;
14094;SDS011;18096;48.142;16.290;2022-11-24T07:55:38;1.70;;;1.60;;
14094;SDS011;18096;48.142;16.290;2022-11-24T07:58:04;1.30;;;1.05;;
14094;SDS011;18096;48.142;16.290;2022-11-24T08:00:30;2.00;;;1.60;;
14094;SDS011;18096;48.142;16.290;2022-11-24T08:02:55;2.10;;;1.40;;
14094;SDS011;18096;48.142;16.290;2022-11-24T08:05:21;2.30;;;1.40;;
14094;SDS011;18096;48.142;16.290;2022-11-24T08:07:47;1.20;;;1.20;;
14094;SDS011;18096;48.142;16.290;2022-11-24T08:10:13;1.00;;;1.00;;
14094;SDS011;18096;48.142;16.290;2022-11-24T08:12:38;1.20;;;1.00;;
14094;SDS011;18096;48.142;16.290;2022-11-24T08:15:04;1.60;;;1.50;;
14094;SDS011;18096;48.142;16.290;2022-11-24T08:17:31;1.40;;;1.30;;
14094;SDS011;18096;48.142;16.290;2022-11-24T08:19:57;1.40;;;1.30;;
14094;SDS011;18096;48.142;16.290;2022-11-24T08:22:22;1.48;;;1.38;;
14094;SDS011;18096;48.142;16.290;2022-11-24T08:24:48;1.40;;;1.30;;
14094;SDS011;18096;48.142;16.290;2022-11-24T08:27:15;1.40;;;1.30;;
14094;SDS011;18096;48.142;16.290;2022-11-24T08:29:42;1.40;;;1.30;;
14094;SDS011;18096;48.142;16.290;2022-11-24T08:32:08;1.27;;;1.17;;
14094;SDS011;18096;48.142;16.290;2022-11-24T08:34:35;1.70;;;1.60;;
14094;SDS011;18096;48.142;16.290;2022-11-24T08:37:04;2.53;;;1.53;;
14094;SDS011;18096;48.142;16.290;2022-11-24T08:39:30;2.40;;;1.40;;
14094;SDS011;18096;48.142;16.290;2022-11-24T08:41:55;2.40;;;1.70;;
14094;SDS011;18096;48.142;16.290;2022-11-24T08:44:21;2.50;;;1.50;;
14094;SDS011;18096;48.142;16.290;2022-11-24T08:46:47;1.70;;;1.60;;
14094;SDS011;18096;48.142;16.290;2022-11-24T08:49:14;1.90;;;1.80;;
14094;SDS011;18096;48.142;16.290;2022-11-24T08:51:39;2.10;;;1.60;;
14094;SDS011;18096;48.142;16.290;2022-11-24T08:54:05;1.60;;;1.35;;
14094;SDS011;18096;48.142;16.290;2022-11-24T08:56:33;2.63;;;1.50;;
14094;SDS011;18096;48.142;16.290;2022-11-24T08:58:58;1.77;;;1.50;;
14094;SDS011;18096;48.142;16.290;2022-11-24T09:01:25;2.08;;;1.63;;
14094;SDS011;18096;48.142;16.290;2022-11-24T09:03:51;1.50;;;1.50;;
14094;SDS011;18096;48.142;16.290;2022-11-24T09:06:18;1.63;;;1.60;;
14094;SDS011;18096;48.142;16.290;2022-11-24T09:08:48;1.80;;;1.70;;
14094;SDS011;18096;48.142;16.290;2022-11-24T09:11:15;1.40;;;1.30;;
14094;SDS011;18096;48.142;16.290;2022-11-24T09:13:42;2.10;;;1.90;;
14094;SDS011;18096;48.142;16.290;2022-11-24T09:16:11;1.88;;;1.77;;
14094;SDS011;18096;48.142;16.290;2022-11-24T09:18:39;2.33;;;1.60;;
14094;SDS011;18096;48.142;16.290;2022-11-24T09:21:13;1.73;;;1.63;;
14094;SDS011;18096;48.142;16.290;2022-11-24T09:23:44;1.67;;;1.58;;
14094;SDS011;18096;48.142;16.290;2022-11-24T09:26:14;2.80;;;2.40;;
14094;SDS011;18096;48.142;16.290;2022-11-24T09:28:41;3.50;;;2.47;;
14094;SDS011;18096;48.142;16.290;2022-11-24T09:31:09;2.20;;;2.10;;
14094;SDS011;18096;48.142;16.290;2022-11-24T09:33:36;4.10;;;2.40;;
14094;SDS011;18096;48.142;16.290;2022-11-24T09:36:03;2.95;;;2.65;;
14094;SDS011;18096;48.142;16.290;2022-11-24T09:38:29;3.63;;;2.95;;
14094;SDS011;18096;48.142;16.290;2022-11-24T09:40:56;2.80;;;2.60;;
14094;SDS011;18096;48.142;16.290;2022-11-24T09:48:45;2.70;;;2.50;;
14094;SDS011;18096;48.142;16.290;2022-11-24T09:51:13;3.72;;;2.92;;
14094;SDS011;18096;48.142;16.290;2022-11-24T09:53:41;4.07;;;2.30;;
14094;SDS011;18096;48.142;16.290;2022-11-24T09:56:17;3.78;;;2.97;;
14094;SDS011;18096;48.142;16.290;2022-11-24T09:59:02;2.40;;;2.30;;
14094;SDS011;18096;48.142;16.290;2022-11-24T10:01:35;4.38;;;3.50;;
14094;SDS011;18096;48.142;16.290;2022-11-24T10:04:09;3.45;;;3.10;;
14094;SDS011;18096;48.142;16.290;2022-11-24T10:06:43;2.78;;;2.67;;
14094;SDS011;18096;48.142;16.290;2022-11-24T10:18:07;3.50;;;3.20;;
14094;SDS011;18096;48.142;16.290;2022-11-24T10:26:11;3.90;;;3.40;;
14094;SDS011;18096;48.142;16.290;2022-11-24T10:28:48;3.40;;;3.10;;
14094;SDS011;18096;48.142;16.290;2022-11-24T10:34:18;7.93;;;2.72;;
14094;SDS011;18096;48.142;16.290;2022-11-24T10:37:00;3.90;;;2.72;;
14094;SDS011;18096;48.142;16.290;2022-11-24T10:39:51;3.20;;;2.90;;
14094;SDS011;18096;48.142;16.290;2022-11-24T10:42:34;2.90;;;2.55;;
14094;SDS011;18096;48.142;16.290;2022-11-24T10:45:02;5.32;;;2.65;;
14094;SDS011;18096;48.142;16.290;2022-11-24T10:47:35;2.57;;;2.20;;
14094;SDS011;18096;48.142;16.290;2022-11-24T10:50:03;2.47;;;2.28;;
14094;SDS011;18096;48.142;16.290;2022-11-24T10:52:30;5.00;;;2.45;;
14094;SDS011;18096;48.142;16.290;2022-11-24T10:55:04;2.22;;;2.05;;
14094;SDS011;18096;48.142;16.290;2022-11-24T10:57:34;2.80;;;2.13;;
14094;SDS011;18096;48.142;16.290;2022-11-24T11:00:03;6.22;;;2.80;;
14094;SDS011;18096;48.142;16.290;2022-11-24T11:02:50;5.80;;;2.67;;
14094;SDS011;18096;48.142;16.290;2022-11-24T11:05:40;2.70;;;2.22;;
14094;SDS011;18096;48.142;16.290;2022-11-24T11:08:21;4.20;;;2.90;;
14094;SDS011;18096;48.142;16.290;2022-11-24T11:10:50;4.25;;;2.45;;
14094;SDS011;18096;48.142;16.290;2022-11-24T11:13:35;2.90;;;2.40;;
14094;SDS011;18096;48.142;16.290;2022-11-24T11:16:01;2.43;;;2.23;;
14094;SDS011;18096;48.142;16.290;2022-11-24T11:18:46;4.97;;;2.20;;
14094;SDS011;18096;48.142;16.290;2022-11-24T11:21:23;2.10;;;1.90;;
14094;SDS011;18096;48.142;16.290;2022-11-24T11:24:10;2.65;;;2.40;;
14094;SDS011;18096;48.142;16.290;2022-11-24T11:26:40;3.53;;;2.10;;
14094;SDS011;18096;48.142;16.290;2022-11-24T11:31:35;3.30;;;3.00;;
14094;SDS011;18096;48.142;16.290;2022-11-24T11:36:34;5.30;;;2.60;;
14094;SDS011;18096;48.142;16.290;2022-11-24T11:39:04;2.83;;;2.70;;
14094;SDS011;18096;48.142;16.290;2022-11-24T11:41:34;6.85;;;3.30;;
14094;SDS011;18096;48.142;16.290;2022-11-24T11:44:14;9.10;;;3.20;;
14094;SDS011;18096;48.142;16.290;2022-11-24T11:47:01;3.17;;;2.97;;
14094;SDS011;18096;48.142;16.290;2022-11-24T11:49:42;3.60;;;2.83;;
14094;SDS011;18096;48.142;16.290;2022-11-24T12:01:02;5.05;;;3.40;;
14094;SDS011;18096;48.142;16.290;2022-11-24T12:12:21;3.47;;;3.17;;
14094;SDS011;18096;48.142;16.290;2022-11-24T12:21:02;5.82;;;3.33;;
14094;SDS011;18096;48.142;16.290;2022-11-24T12:23:51;4.22;;;2.75;;
14094;SDS011;18096;48.142;16.290;2022-11-24T12:26:38;3.23;;;3.03;;
14094;SDS011;18096;48.142;16.290;2022-11-24T12:37:23;3.53;;;3.22;;
14094;SDS011;18096;48.142;16.290;2022-11-24T12:42:34;4.07;;;3.63;;
14094;SDS011;18096;48.142;16.290;2022-11-24T12:45:30;10.68;;;3.72;;
14094;SDS011;18096;48.142;16.290;2022-11-24T12:48:07;6.93;;;3.30;;
14094;SDS011;18096;48.142;16.290;2022-11-24T12:50:37;3.60;;;3.30;;
14094;SDS011;18096;48.142;16.290;2022-11-24T12:53:08;3.97;;;3.57;;
14094;SDS011;18096;48.142;16.290;2022-11-24T12:55:42;4.25;;;3.50;;
14094;SDS011;18096;48.142;16.290;2022-11-24T13:01:08;3.20;;;3.03;;
14094;SDS011;18096;48.142;16.290;2022-11-24T13:09:12;3.30;;;3.10;;
14094;SDS011;18096;48.142;16.290;2022-11-24T13:11:39;11.55;;;4.10;;
14094;SDS011;18096;48.142;16.290;2022-11-24T13:14:31;4.57;;;3.80;;
14094;SDS011;18096;48.142;16.290;2022-11-24T13:17:02;4.45;;;4.05;;
14094;SDS011;18096;48.142;16.290;2022-11-24T13:19:46;4.10;;;3.42;;
14094;SDS011;18096;48.142;16.290;2022-11-24T13:22:14;5.37;;;3.70;;
14094;SDS011;18096;48.142;16.290;2022-11-24T13:25:02;7.60;;;3.80;;
14094;SDS011;18096;48.142;16.290;2022-11-24T13:27:41;4.30;;;3.53;;
14094;SDS011;18096;48.142;16.290;2022-11-24T13:33:43;8.93;;;4.22;;
14094;SDS011;18096;48.142;16.290;2022-11-24T13:39:00;3.40;;;3.20;;
14094;SDS011;18096;48.142;16.290;2022-11-24T13:46:59;9.65;;;3.47;;
14094;SDS011;18096;48.142;16.290;2022-11-24T13:49:36;4.35;;;3.00;;
14094;SDS011;18096;48.142;16.290;2022-11-24T13:54:58;9.70;;;3.60;;
14094;SDS011;18096;48.142;16.290;2022-11-24T13:57:34;4.43;;;3.53;;
14094;SDS011;18096;48.142;16.290;2022-11-24T14:00:03;6.20;;;3.40;;
14094;SDS011;18096;48.142;16.290;2022-11-24T14:02:42;3.70;;;2.83;;
14094;SDS011;18096;48.142;16.290;2022-11-24T14:05:11;4.67;;;2.83;;
14094;SDS011;18096;48.142;16.290;2022-11-24T14:07:44;6.53;;;4.05;;
14094;SDS011;18096;48.142;16.290;2022-11-24T14:10:17;4.63;;;2.70;;
14094;SDS011;18096;48.142;16.290;2022-11-24T14:12:46;6.10;;;2.70;;
14094;SDS011;18096;48.142;16.290;2022-11-24T14:15:32;3.80;;;2.65;;
14094;SDS011;18096;48.142;16.290;2022-11-24T14:17:59;3.10;;;2.83;;
14094;SDS011;18096;48.142;16.290;2022-11-24T14:20:25;6.20;;;2.77;;
14094;SDS011;18096;48.142;16.290;2022-11-24T14:22:52;3.40;;;3.10;;
14094;SDS011;18096;48.142;16.290;2022-11-24T14:25:19;3.83;;;2.78;;
14094;SDS011;18096;48.142;16.290;2022-11-24T14:27:54;4.90;;;2.53;;
14094;SDS011;18096;48.142;16.290;2022-11-24T14:30:21;2.90;;;2.40;;
14094;SDS011;18096;48.142;16.290;2022-11-24T14:35:31;7.07;;;2.80;;
14094;SDS011;18096;48.142;16.290;2022-11-24T14:37:59;6.60;;;2.97;;
14094;SDS011;18096;48.142;16.290;2022-11-24T14:40:40;6.05;;;3.17;;
14094;SDS011;18096;48.142;16.290;2022-11-24T14:43:25;3.30;;;2.38;;
14094;SDS011;18096;48.142;16.290;2022-11-24T14:45:58;4.40;;;2.90;;
14094;SDS011;18096;48.142;16.290;2022-11-24T14:48:30;6.47;;;2.80;;
14094;SDS011;18096;48.142;16.290;2022-11-24T14:51:04;4.20;;;2.78;;
14094;SDS011;18096;48.142;16.290;2022-11-24T14:53:42;6.03;;;3.15;;
14094;SDS011;18096;48.142;16.290;2022-11-24T14:56:20;5.93;;;3.40;;
14094;SDS011;18096;48.142;16.290;2022-11-24T14:59:02;5.10;;;2.50;;
14094;SDS011;18096;48.142;16.290;2022-11-24T15:01:43;5.07;;;2.60;;
14094;SDS011;18096;48.142;16.290;2022-11-24T15:04:16;6.27;;;2.87;;
14094;SDS011;18096;48.142;16.290;2022-11-24T15:06:48;5.95;;;2.70;;
14094;SDS011;18096;48.142;16.290;2022-11-24T15:09:49;3.60;;;2.75;;
14094;SDS011;18096;48.142;16.290;2022-11-24T15:12:20;7.03;;;3.15;;
14094;SDS011;18096;48.142;16.290;2022-11-24T15:14:51;3.80;;;3.50;;
14094;SDS011;18096;48.142;16.290;2022-11-24T15:17:19;3.08;;;2.80;;
14094;SDS011;18096;48.142;16.290;2022-11-24T15:19:49;3.45;;;3.15;;
14094;SDS011;18096;48.142;16.290;2022-11-24T15:24:53;3.80;;;2.50;;
14094;SDS011;18096;48.142;16.290;2022-11-24T15:27:19;7.13;;;2.87;;
14094;SDS011;18096;48.142;16.290;2022-11-24T15:29:44;6.70;;;2.47;;
14094;SDS011;18096;48.142;16.290;2022-11-24T15:32:11;2.70;;;2.50;;
14094;SDS011;18096;48.142;16.290;2022-11-24T15:34:39;3.20;;;2.40;;
14094;SDS011;18096;48.142;16.290;2022-11-24T15:37:05;3.40;;;2.70;;
14094;SDS011;18096;48.142;16.290;2022-11-24T15:39:32;9.38;;;3.10;;
14094;SDS011;18096;48.142;16.290;2022-11-24T15:41:57;3.07;;;2.50;;
14094;SDS011;18096;48.142;16.290;2022-11-24T15:44:23;2.50;;;2.30;;
14094;SDS011;18096;48.142;16.290;2022-11-24T15:46:49;3.10;;;2.67;;
14094;SDS011;18096;48.142;16.290;2022-11-24T15:49:14;4.73;;;2.83;;
14094;SDS011;18096;48.142;16.290;2022-11-24T15:51:41;2.57;;;2.37;;
14094;SDS011;18096;48.142;16.290;2022-11-24T15:54:09;2.40;;;2.20;;
14094;SDS011;18096;48.142;16.290;2022-11-24T15:56:38;3.53;;;2.70;;
14094;SDS011;18096;48.142;16.290;2022-11-24T15:59:06;4.65;;;2.42;;
14094;SDS011;18096;48.142;16.290;2022-11-24T16:01:37;4.57;;;2.40;;
14094;SDS011;18096;48.142;16.290;2022-11-24T16:04:02;2.08;;;1.85;;
14094;SDS011;18096;48.142;16.290;2022-11-24T16:06:28;2.83;;;2.05;;
14094;SDS011;18096;48.142;16.290;2022-11-24T16:08:54;2.90;;;2.30;;
14094;SDS011;18096;48.142;16.290;2022-11-24T16:11:21;2.78;;;2.58;;
14094;SDS011;18096;48.142;16.290;2022-11-24T16:13:47;3.90;;;2.60;;
14094;SDS011;18096;48.142;16.290;2022-11-24T16:16:13;5.22;;;2.70;;
14094;SDS011;18096;48.142;16.290;2022-11-24T16:18:39;3.47;;;2.40;;
14094;SDS011;18096;48.142;16.290;2022-11-24T16:21:06;4.50;;;2.67;;
14094;SDS011;18096;48.142;16.290;2022-11-24T16:23:33;3.30;;;3.00;;